Archival Weather

Tokyo Intl

Tokyo, Japan (RJTT)

Report from: Saturday, March 18, 2023 1:37 PM JST
Current time: Tuesday, July 16, 2024 6:04 PM JST

Current weather – Weather history – Daily summaries
Weather forecast

Present weatherRain
Temperature9.0°C (48.2°F)
Wind chill5.6°C (42.1°F)
Dew point8.0°C (46.4°F)
Winds 14 kts (7.2 m/s, 16.1 mph) North (360°)
Visibility4.3 mi. (7 km)
Clouds Few clouds 500 ft. (152 m)
Ceiling: Broken clouds 1,000 ft. (305 m)
Broken clouds 2,500 ft. (762 m)
Altimeter29.83 in.Hg (1010 mB)
Relative humidity93 %
Density altitude-455 ft. (-139 m)
Remarks Special weather observation
Flight conditions Marginal Visual Meteorological Conditions
Raw dataSPJP31 KWBC 180513 SPECI RJTT 180437Z 36014KT 7000 RA FEW005 BKN010 BKN025 09/08 Q1010 RMK 1ST005 5ST010 7SC025 A2983
An error has occurred. This application may no longer respond until reloaded. Reload 🗙